sensor_id;sensor_type;location;lat;lon;timestamp;P1;durP1;ratioP1;P2;durP2;ratioP2
18822;SDS011;9540;51.550;7.980;2022-12-29T00:00:19;1.33;;;1.20;;
18822;SDS011;9540;51.550;7.980;2022-12-29T00:02:47;1.25;;;1.15;;
18822;SDS011;9540;51.550;7.980;2022-12-29T00:05:14;1.00;;;1.00;;
18822;SDS011;9540;51.550;7.980;2022-12-29T00:07:41;3.05;;;1.25;;
18822;SDS011;9540;51.550;7.980;2022-12-29T00:10:08;1.90;;;1.10;;
18822;SDS011;9540;51.550;7.980;2022-12-29T00:12:35;1.20;;;1.10;;
18822;SDS011;9540;51.550;7.980;2022-12-29T00:15:19;0.98;;;0.98;;
18822;SDS011;9540;51.550;7.980;2022-12-29T00:18:05;0.82;;;0.82;;
18822;SDS011;9540;51.550;7.980;2022-12-29T00:20:33;1.00;;;1.00;;
18822;SDS011;9540;51.550;7.980;2022-12-29T00:23:19;0.95;;;0.95;;
18822;SDS011;9540;51.550;7.980;2022-12-29T00:26:05;0.82;;;0.82;;
18822;SDS011;9540;51.550;7.980;2022-12-29T00:29:07;2.10;;;0.90;;
18822;SDS011;9540;51.550;7.980;2022-12-29T00:31:52;0.80;;;0.80;;
18822;SDS011;9540;51.550;7.980;2022-12-29T00:34:38;0.80;;;0.80;;
18822;SDS011;9540;51.550;7.980;2022-12-29T00:37:22;1.27;;;0.93;;
18822;SDS011;9540;51.550;7.980;2022-12-29T00:40:09;0.85;;;0.77;;
18822;SDS011;9540;51.550;7.980;2022-12-29T00:42:53;2.58;;;0.80;;
18822;SDS011;9540;51.550;7.980;2022-12-29T00:45:39;1.63;;;0.90;;
18822;SDS011;9540;51.550;7.980;2022-12-29T00:48:06;0.70;;;0.70;;
18822;SDS011;9540;51.550;7.980;2022-12-29T00:50:35;0.90;;;0.90;;
18822;SDS011;9540;51.550;7.980;2022-12-29T00:53:00;0.80;;;0.80;;
18822;SDS011;9540;51.550;7.980;2022-12-29T00:55:27;0.60;;;0.60;;
18822;SDS011;9540;51.550;7.980;2022-12-29T00:57:54;1.30;;;0.77;;
18822;SDS011;9540;51.550;7.980;2022-12-29T01:00:21;1.05;;;1.05;;
18822;SDS011;9540;51.550;7.980;2022-12-29T01:02:48;0.90;;;0.90;;
18822;SDS011;9540;51.550;7.980;2022-12-29T01:05:15;0.88;;;0.88;;
18822;SDS011;9540;51.550;7.980;2022-12-29T01:07:43;2.63;;;0.60;;
18822;SDS011;9540;51.550;7.980;2022-12-29T01:10:10;1.08;;;1.02;;
18822;SDS011;9540;51.550;7.980;2022-12-29T01:12:36;0.90;;;0.90;;
18822;SDS011;9540;51.550;7.980;2022-12-29T01:15:07;0.73;;;0.68;;
18822;SDS011;9540;51.550;7.980;2022-12-29T01:17:35;1.85;;;0.80;;
18822;SDS011;9540;51.550;7.980;2022-12-29T01:20:02;1.77;;;0.80;;
18822;SDS011;9540;51.550;7.980;2022-12-29T01:22:30;1.00;;;1.00;;
18822;SDS011;9540;51.550;7.980;2022-12-29T01:24:58;1.52;;;0.90;;
18822;SDS011;9540;51.550;7.980;2022-12-29T01:27:25;0.88;;;0.88;;
18822;SDS011;9540;51.550;7.980;2022-12-29T01:29:52;0.70;;;0.70;;
18822;SDS011;9540;51.550;7.980;2022-12-29T01:32:19;0.60;;;0.60;;
18822;SDS011;9540;51.550;7.980;2022-12-29T01:34:46;0.70;;;0.70;;
18822;SDS011;9540;51.550;7.980;2022-12-29T01:37:13;1.55;;;0.70;;
18822;SDS011;9540;51.550;7.980;2022-12-29T01:39:40;1.70;;;0.68;;
18822;SDS011;9540;51.550;7.980;2022-12-29T01:42:11;0.65;;;0.65;;
18822;SDS011;9540;51.550;7.980;2022-12-29T01:44:52;1.95;;;0.93;;
18822;SDS011;9540;51.550;7.980;2022-12-29T01:47:23;0.70;;;0.70;;
18822;SDS011;9540;51.550;7.980;2022-12-29T01:49:55;6.15;;;1.05;;
18822;SDS011;9540;51.550;7.980;2022-12-29T01:52:24;1.00;;;1.00;;
18822;SDS011;9540;51.550;7.980;2022-12-29T01:54:54;1.05;;;0.70;;
18822;SDS011;9540;51.550;7.980;2022-12-29T01:57:24;1.55;;;0.63;;
18822;SDS011;9540;51.550;7.980;2022-12-29T01:59:56;1.17;;;0.80;;
18822;SDS011;9540;51.550;7.980;2022-12-29T02:02:26;0.73;;;0.73;;
18822;SDS011;9540;51.550;7.980;2022-12-29T02:04:54;0.80;;;0.80;;
18822;SDS011;9540;51.550;7.980;2022-12-29T02:07:24;0.52;;;0.52;;
18822;SDS011;9540;51.550;7.980;2022-12-29T02:09:53;0.68;;;0.68;;
18822;SDS011;9540;51.550;7.980;2022-12-29T02:12:22;0.80;;;0.80;;
18822;SDS011;9540;51.550;7.980;2022-12-29T02:14:51;0.70;;;0.70;;
18822;SDS011;9540;51.550;7.980;2022-12-29T02:17:24;0.75;;;0.75;;
18822;SDS011;9540;51.550;7.980;2022-12-29T02:20:11;0.70;;;0.70;;
18822;SDS011;9540;51.550;7.980;2022-12-29T02:23:05;0.60;;;0.60;;
18822;SDS011;9540;51.550;7.980;2022-12-29T02:25:56;0.60;;;0.60;;
18822;SDS011;9540;51.550;7.980;2022-12-29T02:31:45;0.60;;;0.60;;
18822;SDS011;9540;51.550;7.980;2022-12-29T02:34:20;1.00;;;0.57;;
18822;SDS011;9540;51.550;7.980;2022-12-29T02:36:54;0.60;;;0.60;;
18822;SDS011;9540;51.550;7.980;2022-12-29T02:39:30;0.70;;;0.70;;
18822;SDS011;9540;51.550;7.980;2022-12-29T02:42:07;0.93;;;0.88;;
18822;SDS011;9540;51.550;7.980;2022-12-29T02:44:42;0.70;;;0.70;;
18822;SDS011;9540;51.550;7.980;2022-12-29T02:47:20;0.70;;;0.70;;
18822;SDS011;9540;51.550;7.980;2022-12-29T02:49:55;0.93;;;0.93;;
18822;SDS011;9540;51.550;7.980;2022-12-29T02:52:27;0.70;;;0.70;;
18822;SDS011;9540;51.550;7.980;2022-12-29T02:54:58;0.70;;;0.70;;
18822;SDS011;9540;51.550;7.980;2022-12-29T02:57:28;0.85;;;0.70;;
18822;SDS011;9540;51.550;7.980;2022-12-29T02:59:58;0.50;;;0.50;;
18822;SDS011;9540;51.550;7.980;2022-12-29T03:02:39;0.60;;;0.60;;
18822;SDS011;9540;51.550;7.980;2022-12-29T03:05:28;0.70;;;0.70;;
18822;SDS011;9540;51.550;7.980;2022-12-29T03:08:11;1.60;;;0.80;;
18822;SDS011;9540;51.550;7.980;2022-12-29T03:10:48;1.33;;;0.60;;
18822;SDS011;9540;51.550;7.980;2022-12-29T03:13:23;0.70;;;0.70;;
18822;SDS011;9540;51.550;7.980;2022-12-29T03:16:13;0.80;;;0.80;;
18822;SDS011;9540;51.550;7.980;2022-12-29T03:18:48;0.70;;;0.70;;
18822;SDS011;9540;51.550;7.980;2022-12-29T03:21:22;0.90;;;0.70;;
18822;SDS011;9540;51.550;7.980;2022-12-29T03:24:28;0.85;;;0.68;;
18822;SDS011;9540;51.550;7.980;2022-12-29T03:26:59;0.80;;;0.80;;
18822;SDS011;9540;51.550;7.980;2022-12-29T03:29:32;1.02;;;0.68;;
18822;SDS011;9540;51.550;7.980;2022-12-29T03:32:03;0.60;;;0.60;;
18822;SDS011;9540;51.550;7.980;2022-12-29T03:34:34;0.60;;;0.60;;
18822;SDS011;9540;51.550;7.980;2022-12-29T03:37:04;1.05;;;0.70;;
18822;SDS011;9540;51.550;7.980;2022-12-29T03:39:36;1.60;;;0.85;;
18822;SDS011;9540;51.550;7.980;2022-12-29T03:42:04;0.73;;;0.70;;
18822;SDS011;9540;51.550;7.980;2022-12-29T03:44:35;0.93;;;0.80;;
18822;SDS011;9540;51.550;7.980;2022-12-29T03:47:05;1.00;;;0.80;;
18822;SDS011;9540;51.550;7.980;2022-12-29T03:49:32;1.58;;;0.90;;
18822;SDS011;9540;51.550;7.980;2022-12-29T03:52:01;0.73;;;0.73;;
18822;SDS011;9540;51.550;7.980;2022-12-29T03:54:28;1.92;;;0.80;;
18822;SDS011;9540;51.550;7.980;2022-12-29T03:56:55;1.73;;;0.90;;
18822;SDS011;9540;51.550;7.980;2022-12-29T03:59:22;2.15;;;0.80;;
18822;SDS011;9540;51.550;7.980;2022-12-29T04:01:49;0.80;;;0.75;;
18822;SDS011;9540;51.550;7.980;2022-12-29T04:04:16;0.80;;;0.80;;
18822;SDS011;9540;51.550;7.980;2022-12-29T04:06:44;3.30;;;0.93;;
18822;SDS011;9540;51.550;7.980;2022-12-29T04:09:11;2.03;;;0.70;;
18822;SDS011;9540;51.550;7.980;2022-12-29T04:11:38;1.02;;;0.88;;
18822;SDS011;9540;51.550;7.980;2022-12-29T04:14:05;0.70;;;0.70;;
18822;SDS011;9540;51.550;7.980;2022-12-29T04:16:32;1.23;;;0.60;;
18822;SDS011;9540;51.550;7.980;2022-12-29T04:19:00;1.65;;;0.70;;
18822;SDS011;9540;51.550;7.980;2022-12-29T04:21:27;1.27;;;0.80;;
18822;SDS011;9540;51.550;7.980;2022-12-29T04:23:56;0.70;;;0.70;;
18822;SDS011;9540;51.550;7.980;2022-12-29T04:26:23;0.85;;;0.70;;
18822;SDS011;9540;51.550;7.980;2022-12-29T04:28:49;0.60;;;0.60;;
18822;SDS011;9540;51.550;7.980;2022-12-29T04:31:16;0.73;;;0.73;;
18822;SDS011;9540;51.550;7.980;2022-12-29T04:33:43;1.00;;;0.73;;
18822;SDS011;9540;51.550;7.980;2022-12-29T04:36:10;3.45;;;0.70;;
18822;SDS011;9540;51.550;7.980;2022-12-29T04:38:37;0.80;;;0.80;;
18822;SDS011;9540;51.550;7.980;2022-12-29T04:41:05;0.60;;;0.60;;
18822;SDS011;9540;51.550;7.980;2022-12-29T04:43:32;1.08;;;0.93;;
18822;SDS011;9540;51.550;7.980;2022-12-29T04:45:59;0.80;;;0.80;;
18822;SDS011;9540;51.550;7.980;2022-12-29T04:48:26;2.60;;;0.73;;
18822;SDS011;9540;51.550;7.980;2022-12-29T04:50:53;0.60;;;0.60;;
18822;SDS011;9540;51.550;7.980;2022-12-29T04:53:20;1.83;;;0.70;;
18822;SDS011;9540;51.550;7.980;2022-12-29T04:55:48;1.23;;;0.88;;
18822;SDS011;9540;51.550;7.980;2022-12-29T04:58:17;0.93;;;0.80;;
18822;SDS011;9540;51.550;7.980;2022-12-29T05:00:44;0.73;;;0.73;;
18822;SDS011;9540;51.550;7.980;2022-12-29T05:03:11;0.73;;;0.73;;
18822;SDS011;9540;51.550;7.980;2022-12-29T05:05:38;1.20;;;0.75;;
18822;SDS011;9540;51.550;7.980;2022-12-29T05:08:05;0.70;;;0.70;;
18822;SDS011;9540;51.550;7.980;2022-12-29T05:10:32;0.73;;;0.73;;
18822;SDS011;9540;51.550;7.980;2022-12-29T05:12:58;2.13;;;0.80;;
18822;SDS011;9540;51.550;7.980;2022-12-29T05:15:27;2.90;;;0.98;;
18822;SDS011;9540;51.550;7.980;2022-12-29T05:17:54;0.68;;;0.68;;
18822;SDS011;9540;51.550;7.980;2022-12-29T05:20:21;0.90;;;0.90;;
18822;SDS011;9540;51.550;7.980;2022-12-29T05:22:48;0.70;;;0.70;;
18822;SDS011;9540;51.550;7.980;2022-12-29T05:25:14;0.60;;;0.60;;
18822;SDS011;9540;51.550;7.980;2022-12-29T05:27:42;0.60;;;0.60;;
18822;SDS011;9540;51.550;7.980;2022-12-29T05:30:09;1.42;;;0.70;;
18822;SDS011;9540;51.550;7.980;2022-12-29T05:32:38;0.70;;;0.70;;
18822;SDS011;9540;51.550;7.980;2022-12-29T05:35:05;0.70;;;0.70;;
18822;SDS011;9540;51.550;7.980;2022-12-29T05:37:33;1.10;;;0.70;;
18822;SDS011;9540;51.550;7.980;2022-12-29T05:40:00;1.70;;;0.80;;
18822;SDS011;9540;51.550;7.980;2022-12-29T05:42:27;0.77;;;0.60;;
18822;SDS011;9540;51.550;7.980;2022-12-29T05:44:54;1.75;;;0.90;;
18822;SDS011;9540;51.550;7.980;2022-12-29T05:47:20;0.60;;;0.60;;
18822;SDS011;9540;51.550;7.980;2022-12-29T05:49:49;0.77;;;0.77;;
18822;SDS011;9540;51.550;7.980;2022-12-29T05:52:16;1.73;;;0.80;;
18822;SDS011;9540;51.550;7.980;2022-12-29T05:54:43;1.58;;;0.80;;
18822;SDS011;9540;51.550;7.980;2022-12-29T05:57:10;2.05;;;0.73;;
18822;SDS011;9540;51.550;7.980;2022-12-29T05:59:37;0.77;;;0.77;;
18822;SDS011;9540;51.550;7.980;2022-12-29T06:02:04;1.58;;;0.80;;
18822;SDS011;9540;51.550;7.980;2022-12-29T06:04:31;0.80;;;0.80;;
18822;SDS011;9540;51.550;7.980;2022-12-29T06:06:59;4.72;;;0.85;;
18822;SDS011;9540;51.550;7.980;2022-12-29T06:09:26;1.20;;;1.08;;
18822;SDS011;9540;51.550;7.980;2022-12-29T06:11:53;0.75;;;0.75;;
18822;SDS011;9540;51.550;7.980;2022-12-29T06:14:19;1.05;;;0.80;;
18822;SDS011;9540;51.550;7.980;2022-12-29T06:16:46;0.70;;;0.70;;
18822;SDS011;9540;51.550;7.980;2022-12-29T06:19:13;0.70;;;0.70;;
18822;SDS011;9540;51.550;7.980;2022-12-29T06:21:40;2.28;;;1.00;;
18822;SDS011;9540;51.550;7.980;2022-12-29T06:24:09;0.77;;;0.70;;
18822;SDS011;9540;51.550;7.980;2022-12-29T06:26:36;0.70;;;0.70;;
18822;SDS011;9540;51.550;7.980;2022-12-29T06:29:03;0.60;;;0.60;;
18822;SDS011;9540;51.550;7.980;2022-12-29T06:31:30;1.40;;;1.00;;
18822;SDS011;9540;51.550;7.980;2022-12-29T06:33:57;1.33;;;1.23;;
18822;SDS011;9540;51.550;7.980;2022-12-29T06:36:24;1.02;;;1.00;;
18822;SDS011;9540;51.550;7.980;2022-12-29T06:38:51;2.78;;;1.30;;
18822;SDS011;9540;51.550;7.980;2022-12-29T06:41:20;1.75;;;0.80;;
18822;SDS011;9540;51.550;7.980;2022-12-29T06:43:47;0.80;;;0.80;;
18822;SDS011;9540;51.550;7.980;2022-12-29T06:46:14;1.75;;;1.20;;
18822;SDS011;9540;51.550;7.980;2022-12-29T06:48:40;2.05;;;1.30;;
18822;SDS011;9540;51.550;7.980;2022-12-29T06:51:08;1.05;;;0.95;;
18822;SDS011;9540;51.550;7.980;2022-12-29T06:53:35;0.98;;;0.98;;
18822;SDS011;9540;51.550;7.980;2022-12-29T06:56:02;2.88;;;1.00;;
18822;SDS011;9540;51.550;7.980;2022-12-29T06:58:30;0.93;;;0.90;;
18822;SDS011;9540;51.550;7.980;2022-12-29T07:00:57;2.53;;;1.50;;
18822;SDS011;9540;51.550;7.980;2022-12-29T07:03:24;1.20;;;1.20;;
18822;SDS011;9540;51.550;7.980;2022-12-29T07:05:51;3.60;;;1.15;;
18822;SDS011;9540;51.550;7.980;2022-12-29T07:08:19;0.98;;;0.80;;
18822;SDS011;9540;51.550;7.980;2022-12-29T07:10:46;1.50;;;1.00;;
18822;SDS011;9540;51.550;7.980;2022-12-29T07:13:13;1.38;;;0.82;;
18822;SDS011;9540;51.550;7.980;2022-12-29T07:15:41;1.95;;;0.93;;
18822;SDS011;9540;51.550;7.980;2022-12-29T07:18:08;1.52;;;1.02;;
18822;SDS011;9540;51.550;7.980;2022-12-29T07:20:35;1.08;;;0.90;;
18822;SDS011;9540;51.550;7.980;2022-12-29T07:23:01;2.22;;;1.10;;
18822;SDS011;9540;51.550;7.980;2022-12-29T07:25:28;2.05;;;0.90;;
18822;SDS011;9540;51.550;7.980;2022-12-29T07:27:55;2.47;;;1.20;;
18822;SDS011;9540;51.550;7.980;2022-12-29T07:30:22;3.17;;;1.42;;
18822;SDS011;9540;51.550;7.980;2022-12-29T07:32:50;1.10;;;1.00;;
18822;SDS011;9540;51.550;7.980;2022-12-29T07:35:17;2.65;;;0.98;;
18822;SDS011;9540;51.550;7.980;2022-12-29T07:37:44;1.95;;;1.17;;
18822;SDS011;9540;51.550;7.980;2022-12-29T07:40:11;2.25;;;1.00;;
18822;SDS011;9540;51.550;7.980;2022-12-29T07:42:40;1.05;;;0.80;;
18822;SDS011;9540;51.550;7.980;2022-12-29T07:45:07;1.55;;;1.08;;
18822;SDS011;9540;51.550;7.980;2022-12-29T07:47:35;0.93;;;0.93;;
18822;SDS011;9540;51.550;7.980;2022-12-29T07:50:03;1.35;;;0.80;;
18822;SDS011;9540;51.550;7.980;2022-12-29T07:52:31;2.38;;;0.75;;
18822;SDS011;9540;51.550;7.980;2022-12-29T07:54:58;0.98;;;0.98;;
18822;SDS011;9540;51.550;7.980;2022-12-29T07:57:25;1.02;;;1.02;;
18822;SDS011;9540;51.550;7.980;2022-12-29T07:59:52;0.70;;;0.70;;
18822;SDS011;9540;51.550;7.980;2022-12-29T08:02:19;6.32;;;2.03;;
18822;SDS011;9540;51.550;7.980;2022-12-29T08:04:45;1.08;;;0.98;;
18822;SDS011;9540;51.550;7.980;2022-12-29T08:07:14;1.67;;;0.80;;
18822;SDS011;9540;51.550;7.980;2022-12-29T08:09:40;3.13;;;1.10;;
18822;SDS011;9540;51.550;7.980;2022-12-29T08:12:08;1.30;;;1.08;;
18822;SDS011;9540;51.550;7.980;2022-12-29T08:14:36;2.17;;;1.30;;
18822;SDS011;9540;51.550;7.980;2022-12-29T08:17:03;2.45;;;1.17;;
18822;SDS011;9540;51.550;7.980;2022-12-29T08:19:29;2.05;;;1.30;;
18822;SDS011;9540;51.550;7.980;2022-12-29T08:21:56;1.25;;;0.90;;
18822;SDS011;9540;51.550;7.980;2022-12-29T08:24:25;3.67;;;0.98;;
18822;SDS011;9540;51.550;7.980;2022-12-29T08:26:51;3.13;;;1.35;;
18822;SDS011;9540;51.550;7.980;2022-12-29T08:29:18;3.03;;;1.20;;
18822;SDS011;9540;51.550;7.980;2022-12-29T08:31:46;1.35;;;1.25;;
18822;SDS011;9540;51.550;7.980;2022-12-29T08:34:13;1.60;;;0.82;;
18822;SDS011;9540;51.550;7.980;2022-12-29T08:36:40;4.43;;;1.30;;
18822;SDS011;9540;51.550;7.980;2022-12-29T08:39:07;1.30;;;1.10;;
18822;SDS011;9540;51.550;7.980;2022-12-29T08:41:35;1.65;;;1.00;;
18822;SDS011;9540;51.550;7.980;2022-12-29T08:44:02;5.47;;;1.40;;
18822;SDS011;9540;51.550;7.980;2022-12-29T08:46:29;1.90;;;1.30;;
18822;SDS011;9540;51.550;7.980;2022-12-29T08:48:56;3.80;;;1.25;;
18822;SDS011;9540;51.550;7.980;2022-12-29T08:51:23;3.20;;;1.30;;
18822;SDS011;9540;51.550;7.980;2022-12-29T08:53:51;3.08;;;1.52;;
18822;SDS011;9540;51.550;7.980;2022-12-29T08:56:18;2.72;;;1.30;;
18822;SDS011;9540;51.550;7.980;2022-12-29T08:58:46;2.30;;;1.30;;
18822;SDS011;9540;51.550;7.980;2022-12-29T09:01:13;2.00;;;1.15;;
18822;SDS011;9540;51.550;7.980;2022-12-29T09:03:40;7.80;;;1.35;;
18822;SDS011;9540;51.550;7.980;2022-12-29T09:06:07;2.47;;;1.20;;
18822;SDS011;9540;51.550;7.980;2022-12-29T09:08:34;1.60;;;1.20;;
18822;SDS011;9540;51.550;7.980;2022-12-29T09:11:07;3.47;;;1.10;;
18822;SDS011;9540;51.550;7.980;2022-12-29T09:13:34;4.40;;;1.30;;
18822;SDS011;9540;51.550;7.980;2022-12-29T09:16:03;6.95;;;1.35;;
18822;SDS011;9540;51.550;7.980;2022-12-29T09:18:30;4.10;;;1.20;;
18822;SDS011;9540;51.550;7.980;2022-12-29T09:20:57;4.05;;;1.50;;
18822;SDS011;9540;51.550;7.980;2022-12-29T09:23:25;6.80;;;1.10;;
18822;SDS011;9540;51.550;7.980;2022-12-29T09:25:52;5.57;;;1.55;;
18822;SDS011;9540;51.550;7.980;2022-12-29T09:28:19;3.67;;;1.23;;
18822;SDS011;9540;51.550;7.980;2022-12-29T09:30:47;5.15;;;1.23;;
18822;SDS011;9540;51.550;7.980;2022-12-29T09:33:16;4.25;;;1.15;;
18822;SDS011;9540;51.550;7.980;2022-12-29T09:35:43;1.88;;;1.35;;
18822;SDS011;9540;51.550;7.980;2022-12-29T09:38:11;4.53;;;1.60;;
18822;SDS011;9540;51.550;7.980;2022-12-29T09:40:40;7.68;;;1.50;;
18822;SDS011;9540;51.550;7.980;2022-12-29T09:43:14;2.83;;;1.23;;
18822;SDS011;9540;51.550;7.980;2022-12-29T09:45:58;5.70;;;1.90;;
18822;SDS011;9540;51.550;7.980;2022-12-29T09:48:39;5.25;;;1.70;;
18822;SDS011;9540;51.550;7.980;2022-12-29T09:51:08;3.75;;;1.60;;
18822;SDS011;9540;51.550;7.980;2022-12-29T09:53:40;5.10;;;1.40;;
18822;SDS011;9540;51.550;7.980;2022-12-29T09:56:10;3.83;;;1.30;;
18822;SDS011;9540;51.550;7.980;2022-12-29T09:58:42;2.75;;;1.45;;
18822;SDS011;9540;51.550;7.980;2022-12-29T10:01:17;5.03;;;1.70;;
18822;SDS011;9540;51.550;7.980;2022-12-29T10:03:55;2.67;;;1.90;;
18822;SDS011;9540;51.550;7.980;2022-12-29T10:06:24;8.57;;;2.13;;
18822;SDS011;9540;51.550;7.980;2022-12-29T10:09:00;6.30;;;1.52;;
18822;SDS011;9540;51.550;7.980;2022-12-29T10:11:34;4.28;;;1.80;;
18822;SDS011;9540;51.550;7.980;2022-12-29T10:14:22;3.30;;;1.48;;
18822;SDS011;9540;51.550;7.980;2022-12-29T10:17:07;4.88;;;1.67;;
18822;SDS011;9540;51.550;7.980;2022-12-29T10:19:54;5.88;;;1.33;;
18822;SDS011;9540;51.550;7.980;2022-12-29T10:22:35;2.92;;;1.48;;
18822;SDS011;9540;51.550;7.980;2022-12-29T10:25:11;3.05;;;1.45;;
18822;SDS011;9540;51.550;7.980;2022-12-29T10:27:42;4.43;;;1.42;;
18822;SDS011;9540;51.550;7.980;2022-12-29T10:30:13;5.43;;;1.42;;
18822;SDS011;9540;51.550;7.980;2022-12-29T10:32:42;7.55;;;1.83;;
18822;SDS011;9540;51.550;7.980;2022-12-29T10:35:16;5.80;;;1.73;;
18822;SDS011;9540;51.550;7.980;2022-12-29T10:37:47;4.70;;;1.60;;
18822;SDS011;9540;51.550;7.980;2022-12-29T10:40:19;6.00;;;1.60;;
18822;SDS011;9540;51.550;7.980;2022-12-29T10:42:52;5.68;;;1.80;;
18822;SDS011;9540;51.550;7.980;2022-12-29T10:45:21;2.33;;;1.85;;
18822;SDS011;9540;51.550;7.980;2022-12-29T10:47:52;4.82;;;2.05;;
18822;SDS011;9540;51.550;7.980;2022-12-29T10:50:23;3.63;;;1.80;;
18822;SDS011;9540;51.550;7.980;2022-12-29T10:52:51;6.03;;;1.63;;
18822;SDS011;9540;51.550;7.980;2022-12-29T10:55:21;3.92;;;1.90;;
18822;SDS011;9540;51.550;7.980;2022-12-29T10:57:53;6.78;;;1.70;;
18822;SDS011;9540;51.550;7.980;2022-12-29T11:00:22;7.45;;;1.90;;
18822;SDS011;9540;51.550;7.980;2022-12-29T11:05:45;4.72;;;1.35;;
18822;SDS011;9540;51.550;7.980;2022-12-29T11:08:18;6.85;;;1.88;;
18822;SDS011;9540;51.550;7.980;2022-12-29T11:10:56;6.40;;;1.70;;
18822;SDS011;9540;51.550;7.980;2022-12-29T11:13:25;2.50;;;1.10;;
18822;SDS011;9540;51.550;7.980;2022-12-29T11:15:54;3.33;;;1.27;;
18822;SDS011;9540;51.550;7.980;2022-12-29T11:18:21;6.32;;;1.98;;
18822;SDS011;9540;51.550;7.980;2022-12-29T11:20:52;5.38;;;1.60;;
18822;SDS011;9540;51.550;7.980;2022-12-29T11:23:21;4.68;;;1.63;;
18822;SDS011;9540;51.550;7.980;2022-12-29T11:28:34;3.53;;;1.40;;
18822;SDS011;9540;51.550;7.980;2022-12-29T11:31:02;9.43;;;1.88;;
18822;SDS011;9540;51.550;7.980;2022-12-29T11:33:30;5.88;;;1.55;;
18822;SDS011;9540;51.550;7.980;2022-12-29T11:36:01;7.38;;;1.60;;
18822;SDS011;9540;51.550;7.980;2022-12-29T11:38:32;6.05;;;2.50;;
18822;SDS011;9540;51.550;7.980;2022-12-29T11:41:01;3.00;;;1.40;;
18822;SDS011;9540;51.550;7.980;2022-12-29T11:43:30;9.75;;;1.92;;
18822;SDS011;9540;51.550;7.980;2022-12-29T11:45:59;7.15;;;1.77;;
18822;SDS011;9540;51.550;7.980;2022-12-29T11:48:29;6.28;;;1.70;;
18822;SDS011;9540;51.550;7.980;2022-12-29T11:51:00;7.25;;;1.83;;
18822;SDS011;9540;51.550;7.980;2022-12-29T11:53:28;5.10;;;1.60;;
18822;SDS011;9540;51.550;7.980;2022-12-29T11:55:59;4.80;;;1.98;;
18822;SDS011;9540;51.550;7.980;2022-12-29T11:58:29;3.95;;;1.50;;
18822;SDS011;9540;51.550;7.980;2022-12-29T12:00:57;3.50;;;1.58;;
18822;SDS011;9540;51.550;7.980;2022-12-29T12:03:27;6.55;;;1.83;;
18822;SDS011;9540;51.550;7.980;2022-12-29T12:05:57;7.60;;;1.65;;
18822;SDS011;9540;51.550;7.980;2022-12-29T12:08:31;9.35;;;1.75;;
18822;SDS011;9540;51.550;7.980;2022-12-29T12:11:04;9.15;;;1.92;;
18822;SDS011;9540;51.550;7.980;2022-12-29T12:13:37;7.78;;;1.83;;
18822;SDS011;9540;51.550;7.980;2022-12-29T12:16:09;6.50;;;1.30;;
18822;SDS011;9540;51.550;7.980;2022-12-29T12:18:41;9.15;;;2.38;;
18822;SDS011;9540;51.550;7.980;2022-12-29T12:21:15;8.90;;;2.10;;
18822;SDS011;9540;51.550;7.980;2022-12-29T12:24:01;3.38;;;1.42;;
18822;SDS011;9540;51.550;7.980;2022-12-29T12:26:42;4.45;;;1.55;;
18822;SDS011;9540;51.550;7.980;2022-12-29T12:29:19;6.38;;;1.73;;
18822;SDS011;9540;51.550;7.980;2022-12-29T12:31:51;6.85;;;1.40;;
18822;SDS011;9540;51.550;7.980;2022-12-29T12:34:23;4.88;;;1.30;;
18822;SDS011;9540;51.550;7.980;2022-12-29T12:37:03;4.47;;;1.30;;
18822;SDS011;9540;51.550;7.980;2022-12-29T12:39:55;10.73;;;2.15;;
18822;SDS011;9540;51.550;7.980;2022-12-29T12:42:42;4.68;;;1.27;;
18822;SDS011;9540;51.550;7.980;2022-12-29T12:48:26;7.45;;;1.55;;
18822;SDS011;9540;51.550;7.980;2022-12-29T12:51:08;6.78;;;1.45;;
18822;SDS011;9540;51.550;7.980;2022-12-29T12:53:49;7.57;;;1.73;;
18822;SDS011;9540;51.550;7.980;2022-12-29T12:56:33;8.70;;;1.95;;
18822;SDS011;9540;51.550;7.980;2022-12-29T12:59:15;4.00;;;1.50;;
18822;SDS011;9540;51.550;7.980;2022-12-29T13:01:59;9.90;;;1.85;;
18822;SDS011;9540;51.550;7.980;2022-12-29T13:04:37;8.50;;;1.92;;
18822;SDS011;9540;51.550;7.980;2022-12-29T13:07:30;8.07;;;1.70;;
18822;SDS011;9540;51.550;7.980;2022-12-29T13:10:12;6.18;;;1.65;;
18822;SDS011;9540;51.550;7.980;2022-12-29T13:12:51;12.32;;;2.03;;
18822;SDS011;9540;51.550;7.980;2022-12-29T13:15:33;5.22;;;1.85;;
18822;SDS011;9540;51.550;7.980;2022-12-29T13:18:12;5.40;;;1.60;;
18822;SDS011;9540;51.550;7.980;2022-12-29T13:20:50;7.45;;;1.35;;
18822;SDS011;9540;51.550;7.980;2022-12-29T13:23:26;6.03;;;1.45;;
18822;SDS011;9540;51.550;7.980;2022-12-29T13:26:03;3.80;;;1.70;;
18822;SDS011;9540;51.550;7.980;2022-12-29T13:28:40;3.80;;;1.52;;
18822;SDS011;9540;51.550;7.980;2022-12-29T13:31:15;8.43;;;1.52;;
18822;SDS011;9540;51.550;7.980;2022-12-29T13:33:49;4.30;;;1.30;;
18822;SDS011;9540;51.550;7.980;2022-12-29T13:36:24;5.32;;;1.38;;
18822;SDS011;9540;51.550;7.980;2022-12-29T13:38:59;8.05;;;1.73;;
18822;SDS011;9540;51.550;7.980;2022-12-29T13:41:29;4.72;;;1.50;;
18822;SDS011;9540;51.550;7.980;2022-12-29T13:44:01;7.45;;;2.45;;
18822;SDS011;9540;51.550;7.980;2022-12-29T13:46:33;5.90;;;1.77;;
18822;SDS011;9540;51.550;7.980;2022-12-29T13:49:04;7.68;;;2.00;;
18822;SDS011;9540;51.550;7.980;2022-12-29T13:51:34;4.22;;;1.50;;
18822;SDS011;9540;51.550;7.980;2022-12-29T13:54:07;17.85;;;5.97;;
18822;SDS011;9540;51.550;7.980;2022-12-29T13:56:41;8.10;;;2.28;;
18822;SDS011;9540;51.550;7.980;2022-12-29T13:59:19;13.30;;;4.35;;
18822;SDS011;9540;51.550;7.980;2022-12-29T14:01:53;4.65;;;2.10;;
18822;SDS011;9540;51.550;7.980;2022-12-29T14:04:25;8.55;;;2.28;;
18822;SDS011;9540;51.550;7.980;2022-12-29T14:07:00;7.07;;;3.03;;
18822;SDS011;9540;51.550;7.980;2022-12-29T14:09:34;5.00;;;1.45;;
18822;SDS011;9540;51.550;7.980;2022-12-29T14:15:03;8.07;;;1.70;;
18822;SDS011;9540;51.550;7.980;2022-12-29T14:17:45;6.85;;;1.75;;
18822;SDS011;9540;51.550;7.980;2022-12-29T14:20:28;4.55;;;1.40;;
18822;SDS011;9540;51.550;7.980;2022-12-29T14:22:56;4.78;;;1.67;;
18822;SDS011;9540;51.550;7.980;2022-12-29T14:28:24;1.77;;;1.42;;
18822;SDS011;9540;51.550;7.980;2022-12-29T14:30:55;6.32;;;1.38;;
18822;SDS011;9540;51.550;7.980;2022-12-29T14:33:23;7.78;;;3.00;;
18822;SDS011;9540;51.550;7.980;2022-12-29T14:35:52;6.32;;;3.53;;
18822;SDS011;9540;51.550;7.980;2022-12-29T14:38:23;5.32;;;2.90;;
18822;SDS011;9540;51.550;7.980;2022-12-29T14:40:53;6.50;;;3.53;;
18822;SDS011;9540;51.550;7.980;2022-12-29T14:44:00;6.40;;;2.20;;
18822;SDS011;9540;51.550;7.980;2022-12-29T14:46:47;4.93;;;1.40;;
18822;SDS011;9540;51.550;7.980;2022-12-29T14:49:21;7.68;;;2.08;;
18822;SDS011;9540;51.550;7.980;2022-12-29T14:51:50;6.30;;;1.60;;
18822;SDS011;9540;51.550;7.980;2022-12-29T14:57:18;7.43;;;3.03;;
18822;SDS011;9540;51.550;7.980;2022-12-29T14:59:54;6.32;;;1.65;;
18822;SDS011;9540;51.550;7.980;2022-12-29T15:02:26;9.23;;;2.60;;
18822;SDS011;9540;51.550;7.980;2022-12-29T15:05:03;6.10;;;1.60;;
18822;SDS011;9540;51.550;7.980;2022-12-29T15:07:32;6.80;;;1.73;;
18822;SDS011;9540;51.550;7.980;2022-12-29T15:10:03;7.72;;;2.50;;
18822;SDS011;9540;51.550;7.980;2022-12-29T15:12:36;4.03;;;1.52;;
18822;SDS011;9540;51.550;7.980;2022-12-29T15:15:18;5.35;;;2.05;;
18822;SDS011;9540;51.550;7.980;2022-12-29T15:17:48;3.80;;;1.95;;
18822;SDS011;9540;51.550;7.980;2022-12-29T15:20:24;8.80;;;2.08;;
18822;SDS011;9540;51.550;7.980;2022-12-29T15:22:56;10.27;;;2.13;;
18822;SDS011;9540;51.550;7.980;2022-12-29T15:25:24;3.20;;;1.70;;
18822;SDS011;9540;51.550;7.980;2022-12-29T15:27:52;2.50;;;1.17;;
18822;SDS011;9540;51.550;7.980;2022-12-29T15:30:23;5.55;;;1.55;;
18822;SDS011;9540;51.550;7.980;2022-12-29T15:32:51;5.38;;;1.50;;
18822;SDS011;9540;51.550;7.980;2022-12-29T15:35:26;4.18;;;1.35;;
18822;SDS011;9540;51.550;7.980;2022-12-29T15:37:56;7.13;;;1.30;;
18822;SDS011;9540;51.550;7.980;2022-12-29T15:40:24;4.40;;;1.70;;
18822;SDS011;9540;51.550;7.980;2022-12-29T15:42:56;4.88;;;1.60;;
18822;SDS011;9540;51.550;7.980;2022-12-29T15:45:50;5.97;;;1.52;;